This is the latest recevied weather packets stored in our database for station/object EA4BCR. If no packets are shown the sender has not sent any weather packets the latest 10 day(s).
| Time | Temp. | Humidity | Pressure | Rain* | Wind** | Luminosity | Snow |
|---|---|---|---|---|---|---|---|
| 1787832014 | 25° C | 40% | 1011.1 hPa | - | - | - | - |
| 1787831414 | 25° C | 45% | 1011.2 hPa | - | - | - | - |
| 1787830815 | 25.56° C | 41% | 1011 hPa | - | - | - | - |
| 1787830214 | 25.56° C | 42% | 1011.2 hPa | - | - | - | - |
| 1787829614 | 25° C | 45% | 1011.3 hPa | - | - | - | - |
| 1787829014 | 25° C | 43% | 1011.3 hPa | - | - | - | - |
| 1787828414 | 24.44° C | 46% | 1011.4 hPa | - | - | - | - |
| 1787827814 | 24.44° C | 45% | 1011.3 hPa | - | - | - | - |
| 1787827214 | 24.44° C | 46% | 1011.4 hPa | - | - | - | - |
| 1787826614 | 23.89° C | 47% | 1011.7 hPa | - | - | - | - |
| 1787826014 | 23.89° C | 48% | 1011.8 hPa | - | - | - | - |
| 1787825414 | 23.89° C | 48% | 1011.7 hPa | - | - | - | - |
| 1787824814 | 23.33° C | 49% | 1012 hPa | - | - | - | - |
| 1787824218 | 23.33° C | 49% | 1011.9 hPa | - | - | - | - |
| 1787823614 | 23.89° C | 47% | 1011.6 hPa | - | - | - | - |
| 1787823014 | 23.33° C | 51% | 1011.8 hPa | - | - | - | - |
| 1787822414 | 22.78° C | 51% | 1011.9 hPa | - | - | - | - |
| 1787821814 | 22.22° C | 52% | 1011.9 hPa | - | - | - | - |
| 1787821214 | 22.22° C | 58% | 1012 hPa | - | - | - | - |
| 1787820614 | 21.67° C | 59% | 1012.1 hPa | - | - | - | - |
| 1787820014 | 21.67° C | 65% | 1012.1 hPa | - | - | - | - |
| 1787819414 | 21.11° C | 68% | 1012.3 hPa | - | - | - | - |
| 1787818814 | 20.56° C | 70% | 1012.6 hPa | - | - | - | - |
| 1787818214 | 20° C | 74% | 1012.9 hPa | - | - | - | - |
| 1787817614 | 20° C | 73% | 1012.8 hPa | - | - | - | - |
* Rain since midnight (hover to see other rain measurements)
** Current wind speed in m/s (hover to see current wind gust speed)